Time;durP1;ratioP1;P1;durP2;ratioP2;P2;SDS_P1;SDS_P2;PMS_P1;PMS_P2;Temp;Humidity;BMP_temperature;BMP_pressure;BME280_temperature;BME280_humidity;BME280_pressure;Samples;Min_cycle;Max_cycle;Signal;HPM_P1;HPM_P2
2022/04/02 00:02:13;;;;;;;34.35;19.25;;;;;;;2.54;100.00;98317.19;4878737;29;20413;-74
2022/04/02 00:04:41;;;;;;;43.70;26.02;;;;;;;2.58;100.00;98318.69;4878832;29;20045;-74
2022/04/02 00:07:11;;;;;;;41.15;23.77;;;;;;;2.62;100.00;98316.75;4877445;29;20087;-74
2022/04/02 00:09:40;;;;;;;38.35;22.25;;;;;;;2.68;100.00;98324.25;4878721;29;20068;-75
2022/04/02 00:12:09;;;;;;;31.20;18.88;;;;;;;2.64;100.00;98327.16;4878398;29;20080;-73
2022/04/02 00:14:39;;;;;;;31.80;19.83;;;;;;;2.58;100.00;98329.22;4881512;29;20041;-72
2022/04/02 00:17:08;;;;;;;36.03;22.35;;;;;;;2.51;100.00;98321.75;4882105;29;20080;-73
2022/04/02 00:19:37;;;;;;;36.75;22.50;;;;;;;2.58;100.00;98323.94;4882168;29;20128;-74
2022/04/02 00:22:05;;;;;;;39.55;23.10;;;;;;;2.66;100.00;98336.66;4881645;29;20049;-74
2022/04/02 00:24:35;;;;;;;38.45;24.27;;;;;;;2.61;100.00;98333.47;4882191;29;20048;-74
2022/04/02 00:27:04;;;;;;;35.58;21.67;;;;;;;2.53;100.00;98331.28;4881629;29;20067;-75
2022/04/02 00:29:34;;;;;;;35.33;22.33;;;;;;;2.48;100.00;98343.84;4882191;29;20453;-75
2022/04/02 00:32:02;;;;;;;31.73;20.98;;;;;;;2.37;100.00;98334.88;4865192;29;20091;-75
2022/04/02 00:34:30;;;;;;;39.00;23.15;;;;;;;2.47;100.00;98325.50;4881911;29;20049;-74
2022/04/02 00:36:59;;;;;;;32.40;20.20;;;;;;;2.38;100.00;98313.72;4881629;29;20096;-75
2022/04/02 00:39:27;;;;;;;22.30;12.40;;;;;;;2.34;100.00;98303.50;4881878;29;20097;-73
2022/04/02 00:41:57;;;;;;;41.53;24.00;;;;;;;2.38;100.00;98303.19;4881325;29;20132;-72
2022/04/02 00:44:26;;;;;;;37.65;23.33;;;;;;;2.38;100.00;98299.72;4881624;29;20048;-72
2022/04/02 00:46:55;;;;;;;40.33;24.42;;;;;;;2.40;100.00;98305.75;4881244;29;20049;-73
2022/04/02 00:49:23;;;;;;;38.58;22.85;;;;;;;2.40;100.00;98308.38;4881815;29;20509;-74
2022/04/02 00:51:53;;;;;;;37.13;23.58;;;;;;;2.34;100.00;98319.28;4881294;29;20083;-73
2022/04/02 00:54:22;;;;;;;37.80;22.80;;;;;;;2.26;100.00;98320.56;4881450;29;20079;-72
2022/04/02 00:56:50;;;;;;;38.78;23.38;;;;;;;2.26;100.00;98317.06;4881556;29;20105;-74
2022/04/02 00:59:19;;;;;;;36.35;22.45;;;;;;;2.26;100.00;98320.56;4881322;29;20041;-74
2022/04/02 01:01:48;;;;;;;39.20;23.98;;;;;;;2.26;100.00;98320.56;4881345;29;20051;-74
2022/04/02 01:04:16;;;;;;;38.33;22.98;;;;;;;2.28;100.00;98326.56;4881393;29;20101;-73
2022/04/02 01:06:46;;;;;;;37.67;23.13;;;;;;;2.33;100.00;98328.94;4881205;29;20045;-73
2022/04/02 01:09:14;;;;;;;33.38;21.70;;;;;;;2.28;100.00;98321.31;4880915;29;20049;-73
2022/04/02 01:11:48;;;;;;;38.78;23.75;;;;;;;2.23;100.00;98319.88;4880152;29;20064;-73
2022/04/02 01:14:16;;;;;;;37.80;23.25;;;;;;;2.27;100.00;98324.03;4880783;29;20051;-73
2022/04/02 01:16:46;;;;;;;36.90;22.58;;;;;;;2.27;100.00;98324.88;4881082;29;20049;-73
2022/04/02 01:19:15;;;;;;;40.05;24.38;;;;;;;2.23;100.00;98331.25;4881012;29;20049;-76
2022/04/02 01:21:45;;;;;;;36.70;22.45;;;;;;;2.15;100.00;98337.88;4881033;29;20539;-78
2022/04/02 01:24:14;;;;;;;36.53;21.95;;;;;;;2.15;100.00;98333.47;4880607;29;20048;-77
2022/04/02 01:26:43;;;;;;;38.90;23.95;;;;;;;2.12;100.00;98338.88;4880198;29;20045;-75
2022/04/02 01:29:11;;;;;;;36.60;22.38;;;;;;;1.96;100.00;98340.69;4880635;29;20060;-78
2022/04/02 01:31:44;;;;;;;37.08;22.73;;;;;;;1.93;100.00;98346.97;4880923;29;20471;-77
2022/04/02 01:34:12;;;;;;;31.50;19.37;;;;;;;1.94;100.00;98350.44;4880624;29;20045;-77
2022/04/02 01:36:40;;;;;;;36.90;22.83;;;;;;;1.89;100.00;98349.84;4880601;29;20053;-75
2022/04/02 01:39:10;;;;;;;36.78;22.55;;;;;;;1.88;100.00;98342.88;4880215;29;20049;-75
2022/04/02 01:41:38;;;;;;;39.85;24.38;;;;;;;1.82;100.00;98359.00;4879489;29;20045;-75
2022/04/02 01:44:06;;;;;;;38.83;22.33;;;;;;;1.80;100.00;98351.19;4880403;29;20513;-75
2022/04/02 01:46:35;;;;;;;41.05;25.42;;;;;;;1.77;100.00;98353.16;4880580;29;20049;-76
2022/04/02 01:49:03;;;;;;;39.00;23.98;;;;;;;1.81;100.00;98362.56;4880241;29;20108;-75
2022/04/02 01:51:32;;;;;;;34.72;22.77;;;;;;;1.76;100.00;98364.59;4880277;29;20053;-75
2022/04/02 01:54:00;;;;;;;37.25;22.02;;;;;;;1.83;100.00;98365.94;4880290;29;20087;-76
2022/04/02 01:56:30;;;;;;;40.88;22.92;;;;;;;1.80;100.00;98371.38;4879552;29;20068;-75
2022/04/02 01:59:00;;;;;;;29.17;15.88;;;;;;;1.83;100.00;98360.69;4880404;29;20045;-76
2022/04/02 02:01:29;;;;;;;36.80;20.63;;;;;;;1.71;100.00;98362.22;4880106;29;20049;-75
2022/04/02 02:03:57;;;;;;;29.92;18.90;;;;;;;1.71;100.00;98368.31;4878811;29;20064;-75
2022/04/02 02:06:25;;;;;;;36.10;23.50;;;;;;;1.76;100.00;98373.34;4880310;29;20423;-76
2022/04/02 02:08:55;;;;;;;36.13;21.80;;;;;;;1.79;100.00;98364.44;4880226;29;20063;-75
2022/04/02 02:11:23;;;;;;;36.42;23.35;;;;;;;1.76;100.00;98375.13;4863680;29;20056;-75
2022/04/02 02:13:52;;;;;;;32.25;19.20;;;;;;;1.78;100.00;98368.84;4880214;29;20097;-75
2022/04/02 02:16:21;;;;;;;34.35;19.33;;;;;;;1.86;100.00;98371.06;4880200;29;20048;-75
2022/04/02 02:18:50;;;;;;;29.33;16.00;;;;;;;1.75;100.00;98371.63;4880228;29;20463;-74
2022/04/02 02:21:18;;;;;;;36.55;22.35;;;;;;;1.78;100.00;98383.75;4879863;29;20049;-74
2022/04/02 02:23:47;;;;;;;38.55;23.00;;;;;;;1.81;100.00;98373.06;4879750;29;20132;-75
2022/04/02 02:26:17;;;;;;;38.22;23.02;;;;;;;1.98;100.00;98370.38;4879681;29;20049;-75
2022/04/02 02:28:45;;;;;;;39.15;23.48;;;;;;;1.93;100.00;98368.00;4862932;29;20093;-74
2022/04/02 02:31:15;;;;;;;33.97;21.83;;;;;;;1.93;100.00;98364.50;4879413;29;20053;-74
2022/04/02 02:36:29;;;;;;;40.08;25.23;;;;;;;1.79;100.00;98361.78;4879895;29;20052;-74
2022/04/02 02:39:00;;;;;;;37.03;25.13;;;;;;;1.83;100.00;98360.69;4879444;29;20104;-75
2022/04/02 02:41:28;;;;;;;31.15;18.58;;;;;;;1.81;100.00;98373.06;4879690;29;20128;-75
2022/04/02 02:43:56;;;;;;;38.88;21.70;;;;;;;1.82;100.00;98369.50;4879826;29;20451;-75
2022/04/02 02:46:26;;;;;;;33.53;20.58;;;;;;;1.82;100.00;98364.25;4879669;29;20501;-74
2022/04/02 02:48:54;;;;;;;40.13;25.17;;;;;;;1.81;100.00;98365.19;4879570;29;20052;-74
2022/04/02 02:51:22;;;;;;;40.40;24.95;;;;;;;1.95;100.00;98368.78;4879495;29;20052;-75
2022/04/02 02:53:51;;;;;;;41.22;25.15;;;;;;;1.96;100.00;98362.56;4879379;29;20052;-76
2022/04/02 02:56:19;;;;;;;37.70;22.85;;;;;;;2.02;100.00;98379.78;4879192;29;20076;-74
2022/04/02 02:58:48;;;;;;;36.95;21.65;;;;;;;2.10;100.00;98374.94;4879372;29;20132;-74
2022/04/02 03:01:16;;;;;;;36.83;24.17;;;;;;;1.94;100.00;98384.63;4879295;29;20048;-74
2022/04/02 03:03:46;;;;;;;38.90;25.40;;;;;;;2.03;100.00;98378.88;4879599;29;20422;-73
2022/04/02 03:06:14;;;;;;;34.80;21.70;;;;;;;2.12;100.00;98374.84;4879048;29;20109;-74
2022/04/02 03:08:42;;;;;;;38.33;23.05;;;;;;;2.05;100.00;98376.16;4879259;29;20049;-73
2022/04/02 03:11:11;;;;;;;34.70;21.88;;;;;;;2.11;100.00;98381.06;4879022;29;20049;-76
2022/04/02 03:13:39;;;;;;;37.30;23.63;;;;;;;2.00;100.00;98387.75;4879507;29;20049;-75
2022/04/02 03:16:08;;;;;;;39.33;24.10;;;;;;;2.09;100.00;98391.66;4879056;29;20087;-73
2022/04/02 03:18:36;;;;;;;37.92;23.85;;;;;;;2.16;100.00;98393.03;4879526;29;20495;-74
2022/04/02 03:21:06;;;;;;;38.67;24.90;;;;;;;2.12;100.00;98404.63;4879128;29;20057;-74
2022/04/02 03:23:34;;;;;;;35.50;22.55;;;;;;;2.13;100.00;98395.84;4879091;29;20568;-73
2022/04/02 03:26:02;;;;;;;34.78;22.80;;;;;;;2.23;100.00;98404.06;4879017;29;20081;-76
2022/04/02 03:28:30;;;;;;;37.55;24.33;;;;;;;2.32;100.00;98402.69;4879207;29;20108;-73
2022/04/02 03:30:59;;;;;;;35.22;22.65;;;;;;;2.29;100.00;98412.44;4879083;29;20117;-73
2022/04/02 03:33:27;;;;;;;36.88;23.58;;;;;;;2.19;100.00;98395.47;4879298;29;20483;-75
2022/04/02 03:35:55;;;;;;;37.15;23.98;;;;;;;2.27;100.00;98405.59;4879271;29;20132;-73
2022/04/02 03:38:25;;;;;;;35.25;22.33;;;;;;;2.36;100.00;98391.06;4878801;29;20040;-75
2022/04/02 03:40:53;;;;;;;39.33;23.35;;;;;;;2.26;100.00;98402.09;4879046;29;20056;-75
2022/04/02 03:43:21;;;;;;;37.33;23.13;;;;;;;2.21;100.00;98401.50;4878828;29;20466;-75
2022/04/02 03:45:50;;;;;;;38.85;24.10;;;;;;;2.15;100.00;98409.75;4879221;29;20052;-75
2022/04/02 03:48:18;;;;;;;35.85;23.13;;;;;;;2.16;100.00;98414.06;4879805;29;20065;-74
2022/04/02 03:50:47;;;;;;;36.25;23.48;;;;;;;2.18;100.00;98404.31;4882733;29;20041;-74
2022/04/02 03:53:15;;;;;;;35.85;22.50;;;;;;;2.32;100.00;98418.47;4882418;29;20049;-74
2022/04/02 03:55:45;;;;;;;36.22;22.98;;;;;;;2.34;100.00;98416.63;4882399;29;20049;-74
2022/04/02 03:58:13;;;;;;;37.35;24.30;;;;;;;2.23;100.00;98412.81;4882418;29;20072;-74
2022/04/02 04:00:42;;;;;;;39.97;22.33;;;;;;;2.09;100.00;98409.22;4882303;29;20073;-75
2022/04/02 04:03:16;;;;;;;37.45;21.15;;;;;;;2.06;100.00;98414.66;4882349;29;20052;-72
2022/04/02 04:05:45;;;;;;;36.13;23.10;;;;;;;2.14;100.00;98415.94;4882363;29;20049;-73
2022/04/02 04:08:13;;;;;;;37.22;23.02;;;;;;;2.16;100.00;98416.69;4882195;29;20125;-72
2022/04/02 04:10:46;;;;;;;39.35;23.17;;;;;;;2.08;100.00;98418.91;4881964;29;20053;-74
2022/04/02 04:13:14;;;;;;;38.17;24.75;;;;;;;2.13;100.00;98426.56;4881722;29;20152;-75
2022/04/02 04:15:43;;;;;;;38.13;23.60;;;;;;;2.19;100.00;98421.78;4882332;29;20041;-74
2022/04/02 04:18:11;;;;;;;37.97;23.35;;;;;;;2.18;100.00;98421.88;4882073;29;20114;-74
2022/04/02 04:20:40;;;;;;;37.47;23.00;;;;;;;2.24;100.00;98425.03;4882067;29;20045;-74
2022/04/02 04:23:08;;;;;;;39.53;24.23;;;;;;;2.24;100.00;98422.41;4881797;29;20398;-74
2022/04/02 04:25:37;;;;;;;41.65;23.75;;;;;;;2.20;100.00;98426.09;4881958;29;20045;-73
2022/04/02 04:28:07;;;;;;;36.00;21.52;;;;;;;1.96;100.00;98424.84;4881799;29;20065;-73
2022/04/02 04:30:35;;;;;;;39.67;24.05;;;;;;;1.95;100.00;98428.41;4881961;29;20156;-74
2022/04/02 04:33:03;;;;;;;37.97;23.00;;;;;;;2.08;100.00;98429.41;4881765;29;20049;-76
2022/04/02 04:35:32;;;;;;;30.75;18.77;;;;;;;2.03;100.00;98431.47;4881654;29;20041;-73
2022/04/02 04:38:00;;;;;;;36.08;23.33;;;;;;;2.04;100.00;98435.78;4865296;29;20089;-73
2022/04/02 04:40:28;;;;;;;36.38;23.38;;;;;;;2.03;100.00;98431.47;4881686;29;20049;-73
2022/04/02 04:42:58;;;;;;;33.90;20.83;;;;;;;2.01;100.00;98434.16;4881653;29;20052;-74
2022/04/02 04:45:27;;;;;;;34.97;21.90;;;;;;;2.09;100.00;98436.38;4881521;29;20104;-74
2022/04/02 04:47:55;;;;;;;35.78;21.95;;;;;;;2.20;100.00;98433.16;4881686;29;20041;-75
2022/04/02 04:50:24;;;;;;;34.65;22.13;;;;;;;2.17;100.00;98435.97;4881543;29;20045;-74
2022/04/02 04:52:55;;;;;;;34.78;21.05;;;;;;;2.24;100.00;98427.66;4881644;29;20053;-74
2022/04/02 04:55:23;;;;;;;35.35;22.35;;;;;;;2.18;100.00;98429.75;4881355;29;20383;-76
2022/04/02 04:57:51;;;;;;;33.42;20.35;;;;;;;2.08;100.00;98439.94;4881497;29;20487;-73
2022/04/02 05:00:20;;;;;;;35.03;20.73;;;;;;;2.15;100.00;98437.84;4880292;29;20146;-72
2022/04/02 05:02:50;;;;;;;34.85;21.70;;;;;;;2.14;100.00;98433.50;4881217;29;20622;-72
2022/04/02 05:05:18;;;;;;;34.42;21.77;;;;;;;2.15;100.00;98430.78;4881120;29;20128;-72
2022/04/02 05:08:05;;;;;;;34.33;21.40;;;;;;;2.16;100.00;98440.38;4880993;29;20061;-74
2022/04/02 05:10:34;;;;;;;38.80;22.08;;;;;;;2.19;100.00;98445.47;4881099;29;20048;-73
2022/04/02 05:13:03;;;;;;;36.22;21.17;;;;;;;2.17;100.00;98443.84;4881132;29;20123;-73
2022/04/02 05:15:31;;;;;;;35.00;22.52;;;;;;;2.18;100.00;98443.75;4880749;29;20093;-73
2022/04/02 05:18:02;;;;;;;34.13;19.05;;;;;;;2.11;100.00;98445.03;4881179;29;20057;-72
2022/04/02 05:20:30;;;;;;;41.40;23.27;;;;;;;2.19;100.00;98452.50;4881296;29;20056;-72
2022/04/02 05:22:59;;;;;;;35.97;21.92;;;;;;;2.35;100.00;98463.88;4880798;29;20131;-72
2022/04/02 05:25:27;;;;;;;36.25;21.92;;;;;;;2.44;100.00;98462.53;4880436;29;20115;-72
2022/04/02 05:27:55;;;;;;;32.35;20.77;;;;;;;2.37;100.00;98466.44;4880229;29;20080;-73
2022/04/02 05:30:26;;;;;;;36.13;20.77;;;;;;;2.38;100.00;98468.97;4880223;29;20456;-73
2022/04/02 05:32:55;;;;;;;36.05;22.77;;;;;;;2.40;100.00;98468.88;4880313;29;20077;-73
2022/04/02 05:35:24;;;;;;;36.45;22.45;;;;;;;2.41;100.00;98473.22;4880328;29;20133;-73
2022/04/02 05:37:57;;;;;;;33.83;21.17;;;;;;;2.44;100.00;98473.06;4880593;29;20508;-73
2022/04/02 05:40:26;;;;;;;26.60;15.50;;;;;;;2.43;100.00;98481.91;4880160;29;20048;-74
2022/04/02 05:42:54;;;;;;;31.83;20.83;;;;;;;2.37;100.00;98477.81;4880072;29;20046;-74
2022/04/02 05:45:22;;;;;;;28.88;17.45;;;;;;;2.21;100.00;98474.31;4879571;29;20052;-73
2022/04/02 05:47:54;;;;;;;34.90;21.30;;;;;;;2.29;100.00;98478.22;4879714;29;20049;-73
2022/04/02 05:50:26;;;;;;;36.03;21.73;;;;;;;2.49;100.00;98484.16;4879822;29;20151;-74
2022/04/02 05:53:04;;;;;;;33.45;20.25;;;;;;;2.62;100.00;98487.84;4879926;29;20045;-74
2022/04/02 05:55:35;;;;;;;36.05;20.80;;;;;;;2.65;100.00;98484.19;4880013;29;20041;-74
2022/04/02 05:58:04;;;;;;;32.25;20.67;;;;;;;2.69;100.00;98489.16;4880003;29;20077;-74
2022/04/02 06:00:32;;;;;;;30.63;18.60;;;;;;;2.55;100.00;98486.47;4879571;29;20049;-74
2022/04/02 06:03:04;;;;;;;27.73;14.77;;;;;;;2.56;100.00;98501.31;4880002;29;20522;-75
2022/04/02 06:05:36;;;;;;;33.63;21.77;;;;;;;2.50;100.00;98494.59;4879883;29;20548;-77
2022/04/02 06:08:05;;;;;;;34.08;19.85;;;;;;;2.70;100.00;98488.25;4880058;29;20052;-78
2022/04/02 06:10:33;;;;;;;31.42;18.95;;;;;;;2.54;100.00;98490.03;4879617;29;20104;-73
2022/04/02 06:13:01;;;;;;;35.80;21.23;;;;;;;2.68;100.00;98492.75;4879982;29;20049;-73
2022/04/02 06:15:29;;;;;;;36.55;21.42;;;;;;;2.80;100.00;98488.59;4879590;29;20049;-77
2022/04/02 06:17:57;;;;;;;35.45;21.13;;;;;;;2.87;100.00;98488.13;4879913;29;20102;-76
2022/04/02 06:20:26;;;;;;;33.65;19.83;;;;;;;2.92;100.00;98480.00;4879536;29;20045;-76
2022/04/02 06:22:56;;;;;;;31.05;20.27;;;;;;;3.01;100.00;98483.88;4879766;29;20055;-75
2022/04/02 06:25:24;;;;;;;32.97;20.23;;;;;;;2.96;100.00;98489.41;4879800;29;20068;-74
2022/04/02 06:27:54;;;;;;;33.10;20.25;;;;;;;2.99;100.00;98485.72;4879910;29;20099;-73
2022/04/02 06:30:24;;;;;;;34.83;20.90;;;;;;;3.05;100.00;98488.88;4879660;29;20060;-73
2022/04/02 06:32:55;;;;;;;30.80;19.60;;;;;;;3.11;100.00;98493.81;4879922;29;20501;-74
2022/04/02 06:35:24;;;;;;;32.50;20.58;;;;;;;3.04;100.00;98502.13;4879655;29;20045;-72
2022/04/02 06:37:53;;;;;;;32.40;20.35;;;;;;;3.01;100.00;98510.22;4879898;29;20092;-72
2022/04/02 06:40:25;;;;;;;33.80;20.90;;;;;;;2.92;100.00;98508.09;4879760;29;20052;-73
2022/04/02 06:42:56;;;;;;;33.38;19.63;;;;;;;2.93;100.00;98512.44;4879494;29;20056;-72
2022/04/02 06:45:25;;;;;;;32.40;19.35;;;;;;;2.95;100.00;98511.41;4879158;29;20060;-73
2022/04/02 06:47:53;;;;;;;33.60;20.27;;;;;;;2.92;100.00;98514.22;4879536;29;20052;-74
2022/04/02 06:50:21;;;;;;;29.65;19.35;;;;;;;2.97;100.00;98512.16;4879244;29;20045;-73
2022/04/02 06:52:49;;;;;;;31.10;19.73;;;;;;;3.01;100.00;98510.22;4879520;29;20053;-73
2022/04/02 06:55:18;;;;;;;33.00;21.05;;;;;;;3.01;100.00;98520.75;4881103;29;20455;-73
2022/04/02 06:57:53;;;;;;;35.83;20.27;;;;;;;3.18;100.00;98512.72;4897739;29;20059;-73
2022/04/02 07:00:22;;;;;;;31.75;20.52;;;;;;;3.26;100.00;98526.31;4897658;29;20517;-73
2022/04/02 07:02:51;;;;;;;31.05;19.95;;;;;;;3.35;100.00;98523.13;4898041;29;20048;-75
2022/04/02 07:05:19;;;;;;;31.98;20.30;;;;;;;3.34;100.00;98526.72;4897763;29;20501;-74
2022/04/02 07:07:49;;;;;;;31.88;20.25;;;;;;;3.46;100.00;98514.59;4897823;29;20132;-74
2022/04/02 07:10:17;;;;;;;32.63;20.05;;;;;;;3.66;100.00;98524.81;4897543;29;20408;-74
2022/04/02 07:12:46;;;;;;;30.80;18.83;;;;;;;3.68;100.00;98522.09;4897978;29;20049;-73
2022/04/02 07:15:15;;;;;;;31.50;20.77;;;;;;;3.71;100.00;98527.19;4897875;29;20465;-73
2022/04/02 07:17:44;;;;;;;32.10;20.10;;;;;;;3.58;100.00;98531.50;4897736;29;20048;-73
2022/04/02 07:20:13;;;;;;;31.60;19.10;;;;;;;3.60;100.00;98533.09;4897720;29;20100;-73
2022/04/02 07:22:44;;;;;;;37.85;21.08;;;;;;;3.64;100.00;98531.13;4881367;29;20053;-74
2022/04/02 07:25:13;;;;;;;30.55;18.35;;;;;;;3.71;100.00;98532.47;4885491;29;20053;-76
2022/04/02 07:27:45;;;;;;;29.10;18.60;;;;;;;3.74;100.00;98537.53;4900941;29;20401;-71
2022/04/02 07:30:15;;;;;;;29.80;18.63;;;;;;;3.88;100.00;98544.66;4901760;29;20474;-74
2022/04/02 07:32:45;;;;;;;29.08;19.35;;;;;;;3.79;100.00;98542.56;4907155;29;20041;-74
2022/04/02 07:35:14;;;;;;;31.08;18.25;;;;;;;3.81;100.00;98546.78;4901833;29;20098;-77
2022/04/02 07:37:57;;;;;;;29.20;18.92;;;;;;;3.88;100.00;98542.88;4901824;29;20128;-74
2022/04/02 07:40:28;;;;;;;29.77;19.38;;;;;;;3.64;100.00;98537.25;4884628;29;20466;-72
2022/04/02 07:43:05;;;;;;;27.92;18.45;;;;;;;3.80;100.00;98541.63;4901397;29;20451;-73
2022/04/02 07:45:40;;;;;;;29.15;19.40;;;;;;;3.86;100.00;98542.13;4901207;29;20053;-74
2022/04/02 07:48:10;;;;;;;29.77;19.75;;;;;;;3.87;100.00;98548.22;4901220;29;20056;-76
2022/04/02 07:50:43;;;;;;;31.00;19.60;;;;;;;3.82;100.00;98551.13;4884199;29;20093;-73
2022/04/02 07:53:19;;;;;;;28.25;18.30;;;;;;;3.80;100.00;98552.16;4901232;29;20051;-72
2022/04/02 07:55:52;;;;;;;29.23;18.75;;;;;;;3.90;100.00;98542.75;4901537;29;20087;-76
2022/04/02 07:58:28;;;;;;;30.40;18.27;;;;;;;3.81;100.00;98556.50;4901073;29;20051;-76
2022/04/02 08:01:02;;;;;;;30.45;18.92;;;;;;;3.97;100.00;98557.28;4901414;29;20408;-76
2022/04/02 08:03:31;;;;;;;33.40;19.45;;;;;;;4.06;100.00;98558.53;4902489;29;20044;-75
2022/04/02 08:06:00;;;;;;;27.92;17.98;;;;;;;3.87;100.00;98557.00;4902428;29;20123;-78
2022/04/02 08:08:30;;;;;;;30.38;18.58;;;;;;;4.10;100.00;98549.47;4901581;29;20041;-75
2022/04/02 08:11:01;;;;;;;30.73;18.50;;;;;;;4.40;100.00;98558.16;4901799;29;20044;-77
2022/04/02 08:13:30;;;;;;;33.25;18.63;;;;;;;4.34;100.00;98558.50;4904046;29;20083;-78
2022/04/02 08:16:01;;;;;;;30.35;19.00;;;;;;;4.39;100.00;98566.16;4901541;29;20053;-76
2022/04/02 08:18:31;;;;;;;31.08;18.75;;;;;;;4.12;100.00;98568.69;4899984;29;20056;-79
2022/04/02 08:21:00;;;;;;;29.50;18.55;;;;;;;4.27;100.00;98555.44;4901176;29;20074;-79
2022/04/02 08:23:29;;;;;;;31.00;18.73;;;;;;;4.44;100.00;98559.66;4900912;29;20474;-78
2022/04/02 08:26:15;;;;;;;29.40;18.70;;;;;;;4.46;100.00;98572.78;4901361;29;20048;-79
2022/04/02 08:29:07;;;;;;;28.30;17.88;;;;;;;4.48;100.00;98565.59;4901568;29;20088;-77
2022/04/02 08:31:52;;;;;;;33.75;19.60;;;;;;;4.75;100.00;98574.44;4901743;29;20048;-79
2022/04/02 08:34:42;;;;;;;27.73;17.38;;;;;;;4.81;100.00;98575.81;4901322;29;20048;-79
2022/04/02 08:37:17;;;;;;;28.73;16.85;;;;;;;4.92;100.00;98576.00;4893216;29;20067;-78
2022/04/02 08:39:57;;;;;;;29.95;18.98;;;;;;;4.95;100.00;98574.97;4901223;29;20505;-79
2022/04/02 08:43:02;;;;;;;29.63;18.83;;;;;;;4.83;100.00;98584.53;4901788;29;20096;-77
2022/04/02 08:45:32;;;;;;;27.38;17.15;;;;;;;4.81;100.00;98589.03;4901814;29;20045;-79
2022/04/02 08:48:21;;;;;;;28.58;17.63;;;;;;;5.06;100.00;98583.91;4901422;29;20068;-78
2022/04/02 08:50:56;;;;;;;27.38;17.92;;;;;;;4.81;100.00;98579.31;4901419;29;20045;-78
2022/04/02 08:53:44;;;;;;;28.50;18.40;;;;;;;5.00;100.00;98594.84;4885324;29;20414;-77
2022/04/02 08:56:18;;;;;;;25.73;17.40;;;;;;;4.88;100.00;98595.63;4901585;29;20298;-78
2022/04/02 08:58:58;;;;;;;26.88;17.27;;;;;;;4.87;100.00;98589.50;4901223;29;20108;-77
2022/04/02 09:01:30;;;;;;;27.05;17.50;;;;;;;4.90;100.00;98604.31;4901783;29;20478;-77
2022/04/02 09:04:37;;;;;;;28.23;18.58;;;;;;;4.94;100.00;98599.69;4901101;29;20056;-78
2022/04/02 09:07:51;;;;;;;28.10;18.25;;;;;;;4.78;100.00;98602.44;4901135;29;20075;-77
2022/04/02 09:10:51;;;;;;;26.13;16.42;;;;;;;4.75;100.00;98600.84;4880165;29;20052;-78
2022/04/02 09:13:56;;;;;;;27.42;17.25;;;;;;;4.73;100.00;98612.44;4904049;29;20483;-77
2022/04/02 09:16:27;;;;;;;27.70;17.02;;;;;;;4.84;100.00;98610.84;4901043;29;20075;-77
2022/04/02 09:19:14;;;;;;;27.33;18.10;;;;;;;4.92;100.00;98607.69;4885163;29;20070;-77
2022/04/02 09:22:05;;;;;;;25.20;16.65;;;;;;;5.34;100.00;98608.56;4884455;29;20056;-78
2022/04/02 09:25:21;;;;;;;26.23;16.83;;;;;;;5.59;100.00;98613.94;4902471;29;20069;-78
2022/04/02 09:28:09;;;;;;;25.08;16.67;;;;;;;5.65;100.00;98624.13;4875395;29;20056;-76
2022/04/02 09:31:12;;;;;;;27.95;17.48;;;;;;;5.73;100.00;98619.16;4901331;29;20049;-77
2022/04/02 09:34:15;;;;;;;26.02;15.52;;;;;;;5.78;100.00;98624.16;4902974;29;20053;-77
2022/04/02 09:37:00;;;;;;;24.35;15.30;;;;;;;5.63;100.00;98636.59;4901587;29;20044;-77
2022/04/02 09:39:43;;;;;;;26.92;17.45;;;;;;;5.40;100.00;98634.59;4900925;29;20391;-78
2022/04/02 09:42:21;;;;;;;;;;;;;;;5.37;100.00;98635.63;4901155;29;20055;-77
2022/04/02 09:44:59;;;;;;;26.13;16.88;;;;;;;5.37;100.00;98625.06;4900477;29;19991;-78
2022/04/02 09:47:46;;;;;;;25.10;15.82;;;;;;;5.54;100.00;98636.34;4902304;29;20044;-74
2022/04/02 09:50:16;;;;;;;26.38;17.63;;;;;;;5.62;100.00;98642.84;4900260;29;20044;-75
2022/04/02 09:52:54;;;;;;;24.55;16.02;;;;;;;5.78;100.00;98640.03;4901612;29;20089;-78
2022/04/02 09:55:23;;;;;;;27.38;17.30;;;;;;;5.85;100.00;98643.13;4900987;29;20048;-78
2022/04/02 09:58:16;;;;;;;27.73;17.80;;;;;;;5.64;100.00;98630.34;4902423;29;20046;-78
2022/04/02 10:00:58;;;;;;;26.33;18.08;;;;;;;5.69;100.00;98638.84;4901325;29;20579;-80
2022/04/02 10:03:33;;;;;;;28.30;17.17;;;;;;;5.77;100.00;98645.41;4898859;29;20048;-82
2022/04/02 10:06:19;;;;;;;27.35;17.50;;;;;;;5.94;100.00;98645.19;4898640;29;20066;-81
2022/04/02 10:09:03;;;;;;;28.10;17.48;;;;;;;5.88;100.00;98648.19;4898579;29;20080;-77
2022/04/02 10:11:34;;;;;;;26.13;17.10;;;;;;;5.97;100.00;98643.16;4898106;29;20048;-78
2022/04/02 10:14:04;;;;;;;29.20;17.42;;;;;;;5.84;100.00;98638.78;4898763;29;20048;-81
2022/04/02 10:16:33;;;;;;;27.52;16.80;;;;;;;5.90;100.00;98646.31;4898268;29;20104;-75
2022/04/02 10:19:08;;;;;;;26.25;16.80;;;;;;;5.73;100.00;98658.84;4897789;29;20052;-74
2022/04/02 10:21:38;;;;;;;29.90;18.17;;;;;;;5.53;100.00;98651.38;4898018;29;20103;-74
2022/04/02 10:24:32;;;;;;;29.25;18.02;;;;;;;5.55;100.00;98657.41;4898381;29;20045;-76
2022/04/02 10:27:03;;;;;;;32.78;17.98;;;;;;;5.73;100.00;98656.22;4895712;29;20053;-79
2022/04/02 10:29:45;;;;;;;30.25;17.63;;;;;;;5.83;100.00;98647.66;4897578;29;20224;-81
2022/04/02 10:32:33;;;;;;;30.15;18.73;;;;;;;5.62;100.00;98645.50;4881368;29;20075;-83
2022/04/02 10:35:07;;;;;;;28.13;17.77;;;;;;;5.64;100.00;98648.03;4898082;29;20044;-82
2022/04/02 10:37:44;;;;;;;27.95;16.58;;;;;;;5.75;100.00;98651.66;4897618;29;20068;-76
2022/04/02 10:40:18;;;;;;;30.70;16.95;;;;;;;5.66;100.00;98652.25;4898020;29;20059;-82
2022/04/02 10:42:52;;;;;;;30.83;18.10;;;;;;;5.58;100.00;98651.91;4897860;29;20086;-78
2022/04/02 10:45:22;;;;;;;28.13;17.33;;;;;;;5.72;100.00;98662.47;4897628;29;20490;-77
2022/04/02 10:47:58;;;;;;;29.60;17.70;;;;;;;5.69;100.00;98657.38;4897703;29;20428;-75
2022/04/02 10:50:28;;;;;;;30.42;17.60;;;;;;;5.80;100.00;98663.75;4897911;29;20543;-77
2022/04/02 10:53:02;;;;;;;29.15;17.67;;;;;;;6.01;100.00;98663.22;4897765;29;20056;-81
2022/04/02 10:55:31;;;;;;;;;;;;;;;5.83;100.00;98672.31;4898168;29;20127;-78
2022/04/02 10:58:00;;;;;;;28.67;16.92;;;;;;;5.75;100.00;98672.81;4895898;29;19969;-79
2022/04/02 11:00:30;;;;;;;27.83;17.77;;;;;;;5.62;100.00;98671.94;4897876;29;20127;-78
2022/04/02 11:03:04;;;;;;;27.38;17.27;;;;;;;5.81;100.00;98676.03;4897743;29;20466;-78
2022/04/02 11:05:35;;;;;;;27.00;16.98;;;;;;;5.58;100.00;98678.34;4897608;29;20084;-79
2022/04/02 11:08:06;;;;;;;30.75;17.00;;;;;;;5.47;100.00;98681.69;4898169;29;20076;-78
2022/04/02 11:10:36;;;;;;;30.00;18.13;;;;;;;5.45;100.00;98667.72;4897702;29;20398;-76
2022/04/02 11:13:07;;;;;;;30.75;17.45;;;;;;;5.60;100.00;98688.88;4898185;29;20048;-78
2022/04/02 11:15:41;;;;;;;30.17;18.60;;;;;;;5.64;100.00;98685.91;4897495;29;20045;-77
2022/04/02 11:18:18;;;;;;;28.98;18.13;;;;;;;5.79;100.00;98683.19;4897428;29;20132;-76
2022/04/02 11:20:48;;;;;;;25.45;17.63;;;;;;;5.53;100.00;98688.41;4897603;29;20384;-77
2022/04/02 11:23:21;;;;;;;28.95;17.85;;;;;;;5.38;100.00;98690.22;4897816;29;20045;-77
2022/04/02 11:25:55;;;;;;;30.65;18.58;;;;;;;5.47;100.00;98692.28;4897432;29;20126;-78
2022/04/02 11:28:25;;;;;;;30.83;19.25;;;;;;;5.62;100.00;98695.75;4897652;29;20486;-75
2022/04/02 11:31:02;;;;;;;30.80;19.33;;;;;;;5.71;100.00;98697.81;4897199;29;20044;-78
2022/04/02 11:33:33;;;;;;;26.23;17.05;;;;;;;5.74;100.00;98689.66;4897321;29;20048;-77
2022/04/02 11:36:06;;;;;;;27.15;17.38;;;;;;;5.84;100.00;98689.06;4897631;29;20083;-76
2022/04/02 11:38:39;;;;;;;28.10;18.40;;;;;;;5.72;100.00;98696.84;4897385;29;20053;-77
2022/04/02 11:41:21;;;;;;;31.35;19.33;;;;;;;5.57;100.00;98684.59;4897490;29;20044;-76
2022/04/02 11:43:52;;;;;;;28.55;17.33;;;;;;;5.72;100.00;98698.66;4897686;29;20591;-76